createdAt,value
2022-08-21T00:01:44.771Z,94.31
2022-08-21T00:04:31.678Z,93.78
2022-08-21T00:07:19.350Z,94.28
2022-08-21T00:10:06.273Z,94.58
2022-08-21T00:12:53.645Z,95.58
2022-08-21T00:15:41.634Z,94.99
2022-08-21T00:18:28.726Z,94.40
2022-08-21T00:21:16.157Z,95.50
2022-08-21T00:24:03.045Z,96.12
2022-08-21T00:26:50.137Z,96.05
2022-08-21T00:29:36.959Z,96.91
2022-08-21T00:32:25.806Z,97.76
2022-08-21T00:35:16.758Z,97.84
2022-08-21T00:38:05.579Z,99.01
2022-08-21T00:40:57.822Z,98.47
2022-08-21T00:43:46.683Z,99.07
2022-08-21T00:46:33.157Z,99.39
2022-08-21T00:49:19.500Z,99.46
2022-08-21T00:52:11.901Z,100.00
2022-08-21T00:54:59.741Z,100.00
2022-08-21T00:57:52.979Z,100.00
2022-08-21T01:00:42.237Z,100.00
2022-08-21T01:03:28.947Z,100.00
2022-08-21T01:06:15.286Z,100.00
2022-08-21T01:09:01.646Z,100.00
2022-08-21T01:11:48.634Z,100.00
2022-08-21T01:14:35.654Z,100.00
2022-08-21T01:17:22.247Z,100.00
2022-08-21T01:20:11.643Z,100.00
2022-08-21T01:22:59.196Z,100.00
2022-08-21T01:25:45.804Z,100.00
2022-08-21T01:28:37.740Z,100.00
2022-08-21T01:31:26.391Z,100.00
2022-08-21T01:34:13.360Z,100.00
2022-08-21T01:36:59.802Z,100.00
2022-08-21T01:39:47.127Z,100.00
2022-08-21T01:42:34.534Z,100.00
2022-08-21T01:45:21.591Z,100.00
2022-08-21T01:48:08.105Z,100.00
2022-08-21T01:50:56.938Z,100.00
2022-08-21T01:53:43.510Z,100.00
2022-08-21T01:56:36.986Z,100.00
2022-08-21T01:59:25.114Z,100.00
2022-08-21T02:02:11.606Z,100.00
2022-08-21T02:04:58.226Z,100.00
2022-08-21T02:07:48.189Z,100.00
2022-08-21T02:10:34.970Z,100.00
2022-08-21T02:13:21.633Z,100.00
2022-08-21T02:16:09.100Z,100.00
2022-08-21T02:18:55.438Z,100.00
2022-08-21T02:21:42.302Z,100.00
2022-08-21T02:24:28.616Z,100.00
2022-08-21T02:27:14.846Z,100.00
2022-08-21T02:30:01.530Z,100.00
2022-08-21T02:32:48.101Z,100.00
2022-08-21T02:35:34.627Z,100.00
2022-08-21T02:38:25.586Z,100.00
2022-08-21T02:41:15.530Z,100.00
2022-08-21T02:44:02.117Z,100.00
2022-08-21T02:46:48.436Z,100.00
2022-08-21T02:49:34.741Z,100.00
2022-08-21T02:52:22.693Z,100.00
2022-08-21T02:55:08.932Z,100.00
2022-08-21T02:57:56.153Z,100.00
2022-08-21T03:00:44.612Z,100.00
2022-08-21T03:03:31.361Z,100.00
2022-08-21T03:06:20.578Z,100.00
2022-08-21T03:09:06.690Z,100.00
2022-08-21T03:11:53.037Z,100.00
2022-08-21T03:14:39.530Z,100.00
2022-08-21T03:17:29.834Z,100.00
2022-08-21T03:20:24.678Z,100.00
2022-08-21T03:23:13.193Z,100.00
2022-08-21T03:26:03.776Z,100.00
2022-08-21T03:28:51.580Z,100.00
2022-08-21T03:31:37.802Z,100.00
2022-08-21T03:34:24.239Z,100.00
2022-08-21T03:37:11.740Z,100.00
2022-08-21T03:39:58.407Z,100.00
2022-08-21T03:42:47.885Z,100.00
2022-08-21T03:45:34.394Z,100.00
2022-08-21T03:48:21.027Z,100.00
2022-08-21T03:51:08.034Z,100.00
2022-08-21T03:53:55.423Z,100.00
2022-08-21T03:56:41.709Z,100.00
2022-08-21T03:59:28.071Z,100.00
2022-08-21T04:02:20.429Z,100.00
2022-08-21T04:05:08.025Z,100.00
2022-08-21T04:07:59.798Z,100.00
2022-08-21T04:10:49.761Z,100.00
2022-08-21T04:13:36.204Z,100.00
2022-08-21T04:16:31.862Z,100.00
2022-08-21T04:19:18.348Z,100.00
2022-08-21T04:22:05.094Z,100.00
2022-08-21T04:24:51.462Z,100.00
2022-08-21T04:27:37.750Z,100.00
2022-08-21T04:30:28.471Z,100.00
2022-08-21T04:33:15.578Z,100.00
2022-08-21T04:36:02.578Z,100.00
2022-08-21T04:38:49.521Z,100.00
2022-08-21T04:41:36.862Z,100.00
2022-08-21T04:44:23.029Z,100.00
2022-08-21T04:47:09.246Z,100.00
2022-08-21T04:49:55.640Z,100.00
2022-08-21T04:52:42.297Z,100.00
2022-08-21T04:55:29.362Z,100.00
2022-08-21T04:58:19.936Z,100.00
2022-08-21T05:01:12.504Z,100.00
2022-08-21T05:04:01.667Z,100.00
2022-08-21T05:06:49.772Z,100.00
2022-08-21T05:09:39.003Z,100.00
2022-08-21T05:12:25.934Z,100.00
2022-08-21T05:15:15.482Z,100.00
2022-08-21T05:18:01.775Z,100.00
2022-08-21T05:20:48.484Z,100.00
2022-08-21T05:23:34.893Z,95.70
2022-08-21T05:26:20.980Z,92.30
2022-08-21T05:29:10.615Z,91.70
2022-08-21T05:31:59.473Z,92.64
2022-08-21T05:34:46.016Z,92.21
2022-08-21T05:37:32.535Z,92.98
2022-08-21T05:40:21.236Z,94.16
2022-08-21T05:43:09.041Z,94.64
2022-08-21T05:45:55.537Z,93.55
2022-08-21T05:48:41.981Z,95.22
2022-08-21T05:51:28.286Z,96.26
2022-08-21T05:54:14.565Z,94.86
2022-08-21T05:57:01.091Z,94.05
2022-08-21T05:59:47.365Z,94.88
2022-08-21T06:02:33.598Z,94.66
2022-08-21T06:05:33.433Z,94.96
2022-08-21T06:08:23.574Z,95.28
2022-08-21T06:11:10.210Z,93.02
2022-08-21T06:13:56.741Z,92.46
2022-08-21T06:16:43.436Z,93.77
2022-08-21T06:19:29.988Z,92.61
2022-08-21T06:22:16.405Z,93.10
2022-08-21T06:25:03.009Z,91.92
2022-08-21T06:27:50.039Z,92.19
2022-08-21T06:30:38.151Z,89.72
2022-08-21T06:33:26.333Z,90.17
2022-08-21T06:36:16.421Z,89.32
2022-08-21T06:39:16.299Z,88.54
2022-08-21T06:42:15.273Z,86.47
2022-08-21T06:45:01.446Z,85.51
2022-08-21T06:47:48.041Z,83.56
2022-08-21T06:50:35.256Z,83.93
2022-08-21T06:53:22.016Z,80.86
2022-08-21T06:56:08.957Z,79.19
2022-08-21T06:58:55.606Z,80.16
2022-08-21T07:01:42.279Z,76.98
2022-08-21T07:04:28.789Z,75.67
2022-08-21T07:07:15.198Z,76.92
2022-08-21T07:10:01.502Z,75.85
2022-08-21T07:12:48.089Z,72.02
2022-08-21T07:15:34.235Z,72.65
2022-08-21T07:18:21.067Z,69.76
2022-08-21T07:21:08.458Z,71.86
2022-08-21T07:23:54.867Z,73.05
2022-08-21T07:26:41.626Z,68.47
2022-08-21T07:29:27.849Z,69.94
2022-08-21T07:32:19.595Z,69.65
2022-08-21T07:35:08.408Z,68.21
2022-08-21T07:37:55.118Z,66.21
2022-08-21T07:40:41.702Z,67.55
2022-08-21T07:43:30.049Z,67.72
2022-08-21T07:46:16.440Z,65.17
2022-08-21T07:49:02.635Z,65.45
2022-08-21T07:51:48.952Z,65.54
2022-08-21T07:54:35.353Z,67.21
2022-08-21T07:57:21.837Z,64.43
2022-08-21T08:00:12.877Z,63.55
2022-08-21T08:02:59.876Z,64.70
2022-08-21T08:05:46.357Z,63.47
2022-08-21T08:08:33.029Z,61.59
2022-08-21T08:11:19.551Z,61.03
2022-08-21T08:14:05.892Z,59.21
2022-08-21T08:16:52.158Z,60.80
2022-08-21T08:19:39.821Z,62.08
2022-08-21T08:22:26.284Z,59.41
2022-08-21T08:25:14.695Z,58.39
2022-08-21T08:28:00.981Z,56.93
2022-08-21T08:30:47.510Z,58.98
2022-08-21T08:33:33.902Z,56.44
2022-08-21T08:36:20.357Z,56.88
2022-08-21T08:39:06.944Z,56.70
2022-08-21T08:42:33.968Z,56.54
2022-08-21T08:45:24.805Z,57.26
2022-08-21T08:48:15.523Z,55.26
2022-08-21T08:51:04.164Z,55.14
2022-08-21T08:53:56.176Z,54.24
2022-08-21T08:56:42.805Z,53.99
2022-08-21T08:59:38.998Z,53.63
2022-08-21T09:02:25.466Z,53.21
2022-08-21T09:05:43.641Z,51.51
2022-08-21T09:08:45.407Z,50.78
2022-08-21T09:11:49.690Z,50.04
2022-08-21T09:15:10.457Z,51.11
2022-08-21T09:18:21.481Z,51.54
2022-08-21T09:21:21.862Z,51.15
2022-08-21T09:24:29.895Z,46.77
2022-08-21T09:27:20.042Z,48.77
2022-08-21T09:30:08.049Z,48.61
2022-08-21T09:32:54.398Z,48.41
2022-08-21T09:35:54.028Z,49.30
2022-08-21T09:38:40.622Z,50.07
2022-08-21T09:41:32.091Z,51.01
2022-08-21T09:44:30.355Z,47.04
2022-08-21T09:47:22.779Z,47.93
2022-08-21T09:50:26.037Z,44.90
2022-08-21T09:53:35.759Z,46.50
2022-08-21T09:57:19.323Z,47.17
2022-08-21T10:00:33.692Z,46.50
2022-08-21T10:03:22.436Z,44.60
2022-08-21T10:06:11.654Z,44.26
2022-08-21T10:09:18.736Z,43.93
2022-08-21T10:12:05.213Z,45.25
2022-08-21T10:15:08.235Z,43.95
2022-08-21T10:18:27.599Z,42.75
2022-08-21T10:21:58.691Z,46.71
2022-08-21T10:25:13.633Z,43.19
2022-08-21T10:28:23.038Z,44.32
2022-08-21T10:31:18.580Z,42.29
2022-08-21T10:34:04.943Z,41.72
2022-08-21T10:37:16.370Z,43.07
2022-08-21T10:40:36.051Z,42.78
2022-08-21T10:43:48.698Z,40.66
2022-08-21T10:47:05.629Z,41.57
2022-08-21T10:50:20.535Z,42.59
2022-08-21T10:53:35.958Z,40.62
2022-08-21T10:56:27.619Z,42.75
2022-08-21T10:59:26.686Z,42.87
2022-08-21T11:02:31.462Z,38.62
2022-08-21T11:05:43.429Z,39.07
2022-08-21T11:08:38.611Z,38.44
2022-08-21T11:11:35.813Z,38.85
2022-08-21T11:14:35.184Z,38.67
2022-08-21T11:17:58.295Z,39.62
2022-08-21T11:20:57.853Z,37.66
2022-08-21T11:23:58.383Z,38.54
2022-08-21T11:26:55.121Z,38.75
2022-08-21T11:29:44.801Z,39.28
2022-08-21T11:32:56.060Z,38.66
2022-08-21T11:35:51.646Z,37.73
2022-08-21T11:38:45.930Z,37.87
2022-08-21T11:41:40.041Z,37.68
2022-08-21T11:44:54.807Z,36.68
2022-08-21T11:47:50.909Z,37.09
2022-08-21T11:50:43.497Z,36.29
2022-08-21T11:53:39.086Z,35.22
2022-08-21T11:56:30.972Z,36.48
2022-08-21T11:59:24.598Z,37.18
2022-08-21T12:02:20.678Z,35.28
2022-08-21T12:05:23.034Z,34.58
2022-08-21T12:08:32.387Z,34.40
2022-08-21T12:11:18.581Z,33.89
2022-08-21T12:14:08.134Z,32.64
2022-08-21T12:17:06.969Z,34.77
2022-08-21T12:20:17.573Z,34.19
2022-08-21T12:23:13.361Z,34.87
2022-08-21T12:26:14.287Z,34.36
2022-08-21T12:29:17.717Z,32.56
2022-08-21T12:32:10.759Z,31.20
2022-08-21T12:35:23.192Z,33.15
2022-08-21T12:38:20.287Z,31.82
2022-08-21T12:41:14.085Z,32.41
2022-08-21T12:44:23.297Z,33.85
2022-08-21T12:48:00.356Z,35.04
2022-08-21T12:50:52.012Z,34.98
2022-08-21T12:53:46.906Z,35.40
2022-08-21T12:56:35.201Z,36.65
2022-08-21T12:59:21.456Z,36.08
2022-08-21T13:02:19.466Z,37.80
2022-08-21T13:05:10.451Z,37.10
2022-08-21T13:07:57.941Z,35.85
2022-08-21T13:10:46.425Z,37.10
2022-08-21T13:13:34.046Z,34.93
2022-08-21T13:16:30.461Z,35.58
2022-08-21T13:19:23.949Z,35.53
2022-08-21T13:22:34.055Z,35.25
2022-08-21T13:25:25.660Z,34.34
2022-08-21T13:28:15.754Z,34.64
2022-08-21T13:31:04.906Z,33.81
2022-08-21T13:33:51.986Z,32.94
2022-08-21T13:36:42.116Z,33.25
2022-08-21T13:39:28.730Z,32.00
2022-08-21T13:42:15.465Z,32.82
2022-08-21T13:45:02.296Z,32.96
2022-08-21T13:47:49.210Z,32.81
2022-08-21T13:50:38.882Z,33.54
2022-08-21T13:53:32.306Z,35.80
2022-08-21T13:56:44.067Z,35.94
2022-08-21T13:59:36.383Z,32.33
2022-08-21T14:02:25.090Z,32.10
2022-08-21T14:05:20.488Z,31.58
2022-08-21T14:08:15.508Z,32.04
2022-08-21T14:11:06.466Z,32.21
2022-08-21T14:14:01.684Z,32.67
2022-08-21T14:16:56.754Z,32.50
2022-08-21T14:19:47.929Z,32.35
2022-08-21T14:22:48.634Z,30.78
2022-08-21T14:25:43.972Z,30.41
2022-08-21T14:28:34.146Z,30.18
2022-08-21T14:31:22.943Z,30.59
2022-08-21T14:34:18.982Z,32.00
2022-08-21T14:37:06.270Z,31.77
2022-08-21T14:39:52.926Z,32.94
2022-08-21T14:42:42.205Z,32.89
2022-08-21T14:45:31.426Z,32.82
2022-08-21T14:48:18.045Z,33.03
2022-08-21T14:51:04.407Z,31.77
2022-08-21T14:53:51.254Z,30.61
2022-08-21T14:56:37.644Z,32.05
2022-08-21T14:59:24.372Z,32.38
2022-08-21T15:02:11.213Z,32.15
2022-08-21T15:04:57.959Z,32.24
2022-08-21T15:07:45.445Z,32.70
2022-08-21T15:10:34.926Z,33.06
2022-08-21T15:13:21.906Z,33.40
2022-08-21T15:16:10.201Z,33.42
2022-08-21T15:18:56.758Z,33.03
2022-08-21T15:21:43.399Z,32.19
2022-08-21T15:24:29.885Z,31.94
2022-08-21T15:27:19.526Z,32.13
2022-08-21T15:30:06.525Z,32.64
2022-08-21T15:32:52.993Z,34.17
2022-08-21T15:35:41.112Z,34.65
2022-08-21T15:38:28.001Z,32.83
2022-08-21T15:41:14.958Z,32.29
2022-08-21T15:44:01.547Z,32.25
2022-08-21T15:46:47.882Z,32.31
2022-08-21T15:49:34.237Z,32.32
2022-08-21T15:52:22.368Z,32.51
2022-08-21T15:55:10.373Z,32.28
2022-08-21T15:57:56.803Z,32.01
2022-08-21T16:00:45.542Z,32.29
2022-08-21T16:03:33.135Z,31.94
2022-08-21T16:06:37.925Z,32.20
2022-08-21T16:09:26.124Z,32.51
2022-08-21T16:12:20.807Z,32.99
2022-08-21T16:15:14.447Z,32.77
2022-08-21T16:18:07.052Z,32.48
2022-08-21T16:20:56.176Z,33.94
2022-08-21T16:23:42.703Z,33.17
2022-08-21T16:26:30.391Z,33.33
2022-08-21T16:29:18.446Z,33.04
2022-08-21T16:32:06.081Z,36.03
2022-08-21T16:34:53.024Z,34.58
2022-08-21T16:37:41.661Z,36.28
2022-08-21T16:40:28.513Z,33.62
2022-08-21T16:43:15.233Z,32.61
2022-08-21T16:46:02.312Z,32.84
2022-08-21T16:48:50.027Z,32.76
2022-08-21T16:51:37.622Z,32.97
2022-08-21T16:54:24.297Z,33.89
2022-08-21T16:57:11.802Z,32.89
2022-08-21T16:59:58.118Z,32.63
2022-08-21T17:02:48.362Z,32.75
2022-08-21T17:05:34.768Z,32.48
2022-08-21T17:08:21.090Z,32.74
2022-08-21T17:11:36.835Z,31.44
2022-08-21T17:14:24.834Z,31.75
2022-08-21T17:17:11.770Z,31.16
2022-08-21T17:19:58.073Z,31.35
2022-08-21T17:22:44.287Z,31.90
2022-08-21T17:25:31.189Z,32.12
2022-08-21T17:28:22.998Z,31.97
2022-08-21T17:31:11.630Z,31.96
2022-08-21T17:33:57.938Z,32.47
2022-08-21T17:36:44.595Z,32.66
2022-08-21T17:39:30.943Z,32.42
2022-08-21T17:42:18.525Z,31.99
2022-08-21T17:45:05.245Z,32.96
2022-08-21T17:47:51.672Z,33.07
2022-08-21T17:50:38.330Z,32.66
2022-08-21T17:53:24.670Z,32.85
2022-08-21T17:56:15.816Z,32.67
2022-08-21T17:59:04.575Z,33.11
2022-08-21T18:01:52.252Z,33.13
2022-08-21T18:04:38.507Z,33.73
2022-08-21T18:07:31.906Z,33.39
2022-08-21T18:10:19.633Z,33.32
2022-08-21T18:13:08.713Z,33.79
2022-08-21T18:15:57.295Z,33.70
2022-08-21T18:18:43.640Z,34.08
2022-08-21T18:21:32.384Z,34.50
2022-08-21T18:24:19.282Z,34.35
2022-08-21T18:27:07.911Z,35.36
2022-08-21T18:29:56.851Z,39.39
2022-08-21T18:32:43.781Z,42.83
2022-08-21T18:35:30.596Z,43.28
2022-08-21T18:38:21.118Z,43.99
2022-08-21T18:41:10.442Z,44.74
2022-08-21T18:43:56.922Z,46.67
2022-08-21T18:46:49.928Z,45.49
2022-08-21T18:49:36.253Z,48.02
2022-08-21T18:52:22.822Z,47.69
2022-08-21T18:55:16.598Z,48.41
2022-08-21T18:58:03.700Z,48.39
2022-08-21T19:00:52.432Z,49.90
2022-08-21T19:03:39.589Z,50.73
2022-08-21T19:06:26.123Z,50.12
2022-08-21T19:09:12.553Z,50.42
2022-08-21T19:12:03.006Z,51.90
2022-08-21T19:14:49.571Z,52.34
2022-08-21T19:17:41.215Z,52.13
2022-08-21T19:20:34.553Z,53.64
2022-08-21T19:23:29.136Z,53.41
2022-08-21T19:26:16.981Z,53.93
2022-08-21T19:29:08.772Z,54.71
2022-08-21T19:31:55.667Z,55.59
2022-08-21T19:34:43.321Z,56.16
2022-08-21T19:37:29.561Z,56.66
2022-08-21T19:40:16.483Z,57.86
2022-08-21T19:43:03.066Z,57.02
2022-08-21T19:45:58.605Z,57.71
2022-08-21T19:51:51.668Z,58.83
2022-08-21T19:54:38.410Z,59.84
2022-08-21T19:57:24.933Z,61.33
2022-08-21T20:00:12.059Z,61.59
2022-08-21T20:02:58.670Z,62.09
2022-08-21T20:05:44.915Z,60.81
2022-08-21T20:08:31.330Z,60.70
2022-08-21T20:11:26.197Z,61.10
2022-08-21T20:14:14.961Z,62.22
2022-08-21T20:17:08.157Z,62.65
2022-08-21T20:19:56.913Z,62.57
2022-08-21T20:22:43.634Z,64.35
2022-08-21T20:25:33.521Z,64.57
2022-08-21T20:28:20.680Z,65.58
2022-08-21T20:31:09.580Z,66.85
2022-08-21T20:33:56.477Z,68.14
2022-08-21T20:36:42.945Z,68.66
2022-08-21T20:39:29.832Z,69.26
2022-08-21T20:42:16.654Z,69.55
2022-08-21T20:45:08.029Z,70.43
2022-08-21T20:48:01.687Z,69.61
2022-08-21T20:50:52.046Z,70.06
2022-08-21T20:54:01.071Z,69.08
2022-08-21T20:57:03.603Z,69.10
2022-08-21T21:00:07.053Z,68.66
2022-08-21T21:03:09.862Z,69.37
2022-08-21T21:06:11.270Z,69.76
2022-08-21T21:09:06.934Z,70.78
2022-08-21T21:11:58.763Z,70.28
2022-08-21T21:14:53.702Z,70.78
2022-08-21T21:18:02.251Z,70.96
2022-08-21T21:21:05.114Z,71.45
2022-08-21T21:24:11.997Z,72.74
2022-08-21T21:27:11.615Z,72.92
2022-08-21T21:30:05.301Z,71.98
2022-08-21T21:32:51.556Z,72.57
2022-08-21T21:35:44.788Z,72.17
2022-08-21T21:38:52.668Z,72.56
2022-08-21T21:41:54.390Z,72.57
2022-08-21T21:45:18.394Z,74.38
2022-08-21T21:48:29.452Z,75.91
2022-08-21T21:51:35.255Z,75.40
2022-08-21T21:54:53.688Z,76.07
2022-08-21T21:57:40.301Z,76.46
2022-08-21T22:00:29.749Z,77.37
2022-08-21T22:03:56.484Z,76.84
2022-08-21T22:07:07.190Z,77.44
2022-08-21T22:10:19.858Z,77.45
2022-08-21T22:13:48.357Z,78.15
2022-08-21T22:16:36.600Z,79.11
2022-08-21T22:19:30.689Z,78.91
2022-08-21T22:22:21.096Z,79.40
2022-08-21T22:25:23.879Z,79.19
2022-08-21T22:28:25.450Z,79.13
2022-08-21T22:31:21.041Z,79.31
2022-08-21T22:34:19.497Z,80.34
2022-08-21T22:37:11.094Z,80.76
2022-08-21T22:39:57.904Z,81.18
2022-08-21T22:42:57.868Z,81.87
2022-08-21T22:46:02.117Z,82.80
2022-08-21T22:49:00.627Z,82.84
2022-08-21T22:51:49.159Z,83.16
2022-08-21T22:54:40.864Z,83.88
2022-08-21T22:57:32.730Z,84.07
2022-08-21T23:00:47.262Z,84.41
2022-08-21T23:03:43.457Z,84.68
2022-08-21T23:06:55.202Z,85.40
2022-08-21T23:09:49.781Z,86.23
2022-08-21T23:12:43.710Z,86.92
2022-08-21T23:15:52.530Z,87.26
2022-08-21T23:19:06.719Z,87.22
2022-08-21T23:22:02.114Z,86.62
2022-08-21T23:25:07.202Z,86.62
2022-08-21T23:27:53.604Z,88.52
2022-08-21T23:30:47.850Z,87.70
2022-08-21T23:33:56.206Z,85.92
2022-08-21T23:41:10.952Z,83.08
2022-08-21T23:44:34.638Z,84.02
2022-08-21T23:47:51.101Z,84.16
2022-08-21T23:50:55.021Z,83.72
2022-08-21T23:54:03.774Z,83.26
2022-08-21T23:57:02.550Z,83.40
